Time;durP1;ratioP1;P1;durP2;ratioP2;P2;SDS_P1;SDS_P2;PMS_P1;PMS_P2;Temp;Humidity;BMP_temperature;BMP_pressure;BME280_temperature;BME280_humidity;BME280_pressure;Samples;Min_cycle;Max_cycle;Signal;HPM_P1;HPM_P2
2021/09/10 00:01:30;;;;;;;;;;;21.70;92.80;;;;;;4377676;32;42774;-79
2021/09/10 00:04:01;;;;;;;;;;;21.70;92.80;;;;;;4391966;32;44269;-78
2021/09/10 00:06:29;;;;;;;;;;;21.70;92.80;;;;;;4379210;32;19997;-78
2021/09/10 00:08:59;;;;;;;;;;;21.70;92.90;;;;;;4378088;32;45810;-79
2021/09/10 00:11:31;;;;;;;;;;;21.70;92.90;;;;;;4391733;32;45074;-78
2021/09/10 00:14:02;;;;;;;;;;;21.70;92.90;;;;;;4378394;32;44942;-80
2021/09/10 00:16:32;;;;;;;;;;;21.70;92.90;;;;;;4377922;32;44155;-79
2021/09/10 00:19:05;;;;;;;;;;;21.70;92.90;;;;;;4377947;32;43028;-78
2021/09/10 00:21:32;;;;;;;;;;;21.60;92.80;;;;;;4377406;32;45531;-78
2021/09/10 00:24:02;;;;;;;;;;;21.60;93.20;;;;;;4378121;32;43178;-79
2021/09/10 00:26:32;;;;;;;;;;;21.60;92.90;;;;;;4377571;32;44827;-79
2021/09/10 00:29:05;;;;;;;;;;;21.60;92.90;;;;;;4391142;32;45140;-79
2021/09/10 00:31:32;;;;;;;;;;;21.60;93.00;;;;;;4377496;32;43019;-79
2021/09/10 00:34:07;;;;;;;;;;;21.60;93.00;;;;;;4390897;32;44321;-78
2021/09/10 00:36:37;;;;;;;;;;;21.60;93.00;;;;;;4392294;32;20093;-80
2021/09/10 00:39:04;;;;;;;;;;;21.60;93.30;;;;;;4378008;32;43818;-79
2021/09/10 00:41:31;;;;;;;;;;;21.60;93.00;;;;;;4377780;32;44000;-78
2021/09/10 00:44:06;;;;;;;;;;;21.60;93.00;;;;;;4377389;32;45667;-78
2021/09/10 00:46:37;;;;;;;;;;;21.60;93.00;;;;;;4377733;32;42891;-79
2021/09/10 00:49:10;;;;;;;;;;;21.60;93.00;;;;;;4390929;32;44296;-78
2021/09/10 00:51:40;;;;;;;;;;;21.60;93.00;;;;;;4391203;32;45729;-79
2021/09/10 00:54:13;;;;;;;;;;;21.60;93.00;;;;;;4390695;32;44108;-78
2021/09/10 00:56:42;;;;;;;;;;;21.60;93.00;;;;;;4377550;32;43071;-78
2021/09/10 00:59:15;;;;;;;;;;;21.60;93.00;;;;;;4390556;32;43470;-79
2021/09/10 01:01:42;;;;;;;;;;;21.60;93.00;;;;;;4377005;32;44071;-78
2021/09/10 01:04:11;;;;;;;;;;;21.60;93.00;;;;;;4390805;32;42733;-78
2021/09/10 01:06:47;;;;;;;;;;;21.60;93.10;;;;;;4391806;32;20033;-78
2021/09/10 01:09:14;;;;;;;;;;;21.60;93.10;;;;;;4390878;32;44419;-78
2021/09/10 01:11:44;;;;;;;;;;;21.60;93.10;;;;;;4377279;32;43103;-78
2021/09/10 01:14:15;;;;;;;;;;;21.60;93.10;;;;;;4376809;32;44278;-78
2021/09/10 01:16:45;;;;;;;;;;;21.60;93.10;;;;;;4377002;32;44127;-79
2021/09/10 01:19:29;;;;;;;;;;;21.60;93.10;;;;;;4377009;32;43330;-78
2021/09/10 01:21:58;;;;;;;;;;;21.60;93.10;;;;;;4377301;32;44065;-78
2021/09/10 01:24:34;;;;;;;;;;;21.60;93.10;;;;;;4390168;32;44227;-78
2021/09/10 01:27:06;;;;;;;;;;;21.60;93.10;;;;;;4377319;32;42569;-78
2021/09/10 01:29:33;;;;;;;;;;;21.60;93.10;;;;;;4390657;32;44338;-79
2021/09/10 01:32:01;;;;;;;;;;;21.60;93.20;;;;;;4376979;32;44243;-78
2021/09/10 01:34:36;;;;;;;;;;;21.60;93.10;;;;;;4377232;32;45475;-79
2021/09/10 01:37:08;;;;;;;;;;;21.60;93.20;;;;;;4377507;32;19996;-79
2021/09/10 01:39:35;;;;;;;;;;;21.60;93.20;;;;;;4377158;32;43348;-78
2021/09/10 01:42:02;;;;;;;;;;;21.60;93.20;;;;;;4390398;32;44487;-78
2021/09/10 01:44:32;;;;;;;;;;;21.60;93.20;;;;;;4376602;32;44950;-78
2021/09/10 01:46:59;;;;;;;;;;;21.50;93.30;;;;;;4376841;32;43143;-78
2021/09/10 01:49:29;;;;;;;;;;;21.50;93.30;;;;;;4376773;32;42330;-78
2021/09/10 01:51:56;;;;;;;;;;;21.50;93.30;;;;;;4389913;32;44846;-79
2021/09/10 01:54:24;;;;;;;;;;;21.50;93.30;;;;;;4376484;32;43482;-79
2021/09/10 01:56:51;;;;;;;;;;;21.50;93.30;;;;;;4376559;32;42690;-78
2021/09/10 01:59:24;;;;;;;;;;;21.50;93.30;;;;;;4376073;32;44761;-78
2021/09/10 02:01:51;;;;;;;;;;;21.50;93.30;;;;;;4376111;32;43227;-79
2021/09/10 02:04:19;;;;;;;;;;;21.50;93.30;;;;;;4376214;32;45947;-78
2021/09/10 02:06:49;;;;;;;;;;;21.50;93.30;;;;;;4389878;32;42527;-78
2021/09/10 02:09:24;;;;;;;;;;;21.50;93.30;;;;;;4376297;32;43293;-78
2021/09/10 02:11:57;;;;;;;;;;;21.50;93.30;;;;;;4376546;32;42686;-79
2021/09/10 02:14:29;;;;;;;;;;;21.50;93.30;;;;;;4390070;32;44593;-79
2021/09/10 02:16:57;;;;;;;;;;;21.40;93.30;;;;;;4376212;32;42975;-79
2021/09/10 02:19:27;;;;;;;;;;;21.40;93.40;;;;;;4376314;32;43315;-79
2021/09/10 02:22:02;;;;;;;;;;;21.40;93.40;;;;;;4389893;32;42342;-78
2021/09/10 02:24:29;;;;;;;;;;;21.40;93.50;;;;;;4389959;32;43961;-78
2021/09/10 02:27:03;;;;;;;;;;;21.40;93.50;;;;;;4376144;32;44185;-81
2021/09/10 02:29:32;;;;;;;;;;;21.40;93.50;;;;;;4390183;32;43439;-80
2021/09/10 02:32:00;;;;;;;;;;;21.40;93.50;;;;;;4389692;32;43777;-81
2021/09/10 02:34:27;;;;;;;;;;;21.30;93.50;;;;;;4389555;32;43414;-80
2021/09/10 02:36:56;;;;;;;;;;;21.40;93.50;;;;;;4375838;32;44770;-80
2021/09/10 02:39:24;;;;;;;;;;;21.30;93.50;;;;;;4375960;32;43336;-81
2021/09/10 02:41:51;;;;;;;;;;;21.30;93.50;;;;;;4389459;32;44163;-81
2021/09/10 02:44:21;;;;;;;;;;;21.30;93.50;;;;;;4375999;32;43752;-81
2021/09/10 02:46:53;;;;;;;;;;;21.30;93.50;;;;;;4375925;32;42938;-81
2021/09/10 02:49:24;;;;;;;;;;;21.30;93.50;;;;;;4391344;32;44699;-81
2021/09/10 02:51:56;;;;;;;;;;;21.30;93.60;;;;;;4379201;32;44052;-81
2021/09/10 02:54:23;;;;;;;;;;;21.20;93.50;;;;;;4378913;32;44901;-81
2021/09/10 02:56:53;;;;;;;;;;;21.20;93.50;;;;;;4379362;32;43813;-80
2021/09/10 02:59:25;;;;;;;;;;;21.20;93.50;;;;;;4392855;32;44058;-80
2021/09/10 03:01:52;;;;;;;;;;;21.20;93.50;;;;;;4378386;32;44224;-80
2021/09/10 03:04:20;;;;;;;;;;;21.20;93.50;;;;;;4392726;32;44772;-80
2021/09/10 03:06:52;;;;;;;;;;;21.30;93.60;;;;;;4379064;32;43581;-81
2021/09/10 03:09:20;;;;;;;;;;;21.30;93.60;;;;;;4378855;32;42555;-81
2021/09/10 03:11:53;;;;;;;;;;;21.30;93.60;;;;;;4378829;32;43014;-81
2021/09/10 03:14:20;;;;;;;;;;;21.30;93.60;;;;;;4392525;32;45243;-80
2021/09/10 03:16:53;;;;;;;;;;;21.30;93.50;;;;;;4391944;32;43759;-81
2021/09/10 03:19:20;;;;;;;;;;;21.30;93.50;;;;;;4378473;32;43114;-81
2021/09/10 03:21:52;;;;;;;;;;;21.30;93.50;;;;;;4392156;32;43903;-80
2021/09/10 03:24:20;;;;;;;;;;;21.30;93.50;;;;;;4378920;32;45721;-80
2021/09/10 03:26:52;;;;;;;;;;;21.20;93.50;;;;;;4391905;32;43482;-80
2021/09/10 03:29:19;;;;;;;;;;;21.20;93.50;;;;;;4392346;32;43518;-80
2021/09/10 03:31:47;;;;;;;;;;;21.30;93.50;;;;;;4392280;32;43568;-80
2021/09/10 03:34:14;;;;;;;;;;;21.20;93.50;;;;;;4378360;32;44176;-80
2021/09/10 03:36:46;;;;;;;;;;;21.20;93.50;;;;;;4392021;32;45805;-80
2021/09/10 03:39:14;;;;;;;;;;;21.20;93.50;;;;;;4379178;32;19996;-80
2021/09/10 03:41:41;;;;;;;;;;;21.30;93.50;;;;;;4378178;32;42964;-80
2021/09/10 03:44:08;;;;;;;;;;;21.20;93.50;;;;;;4391596;32;44171;-80
2021/09/10 03:46:38;;;;;;;;;;;21.30;93.50;;;;;;4378885;32;42883;-80
2021/09/10 03:49:09;;;;;;;;;;;21.30;93.50;;;;;;4378495;32;44665;-80
2021/09/10 03:51:36;;;;;;;;;;;21.30;93.40;;;;;;4378578;32;44244;-80
2021/09/10 03:54:05;;;;;;;;;;;21.30;93.40;;;;;;4377979;32;44040;-81
2021/09/10 03:56:32;;;;;;;;;;;21.30;93.40;;;;;;4378041;32;43474;-81
2021/09/10 03:59:00;;;;;;;;;;;21.30;93.40;;;;;;4377697;32;45218;-80
2021/09/10 04:01:27;;;;;;;;;;;21.30;93.30;;;;;;4391509;32;43179;-81
2021/09/10 04:03:58;;;;;;;;;;;21.30;93.30;;;;;;4392027;32;43318;-81
2021/09/10 04:06:28;;;;;;;;;;;21.30;93.30;;;;;;4378127;32;43773;-80
2021/09/10 04:09:00;;;;;;;;;;;21.40;93.30;;;;;;4391298;32;43926;-80
2021/09/10 04:11:28;;;;;;;;;;;21.40;93.30;;;;;;4378272;32;43144;-81
2021/09/10 04:13:58;;;;;;;;;;;21.40;93.30;;;;;;4378322;32;44955;-80
2021/09/10 04:16:25;;;;;;;;;;;21.40;93.20;;;;;;4377743;32;46017;-80
2021/09/10 04:18:58;;;;;;;;;;;21.40;93.20;;;;;;4378024;32;42748;-81
2021/09/10 04:21:25;;;;;;;;;;;21.40;93.20;;;;;;4377983;32;44120;-81
2021/09/10 04:23:55;;;;;;;;;;;21.40;93.10;;;;;;4378078;32;44775;-81
2021/09/10 04:26:22;;;;;;;;;;;21.40;93.10;;;;;;4377475;32;45773;-81
2021/09/10 04:28:49;;;;;;;;;;;21.40;93.00;;;;;;4391248;32;43509;-80
2021/09/10 04:31:17;;;;;;;;;;;21.40;93.00;;;;;;4377678;32;42780;-81
2021/09/10 04:33:46;;;;;;;;;;;21.40;92.90;;;;;;4378029;32;43608;-80
2021/09/10 04:36:19;;;;;;;;;;;21.40;92.90;;;;;;4378290;32;44098;-79
2021/09/10 04:38:49;;;;;;;;;;;21.40;92.90;;;;;;4377773;32;44282;-80
2021/09/10 04:41:16;;;;;;;;;;;21.40;92.90;;;;;;4377512;32;42604;-80
2021/09/10 04:43:49;;;;;;;;;;;21.40;92.90;;;;;;4390916;32;43864;-79
2021/09/10 04:46:19;;;;;;;;;;;21.40;92.90;;;;;;4377338;32;42800;-80
2021/09/10 04:48:49;;;;;;;;;;;21.40;92.90;;;;;;4377598;32;43476;-80
2021/09/10 04:51:19;;;;;;;;;;;21.30;93.00;;;;;;4377051;32;45811;-80
2021/09/10 04:53:54;;;;;;;;;;;21.30;93.00;;;;;;4377605;32;43995;-80
2021/09/10 04:56:30;;;;;;;;;;;21.20;93.00;;;;;;4391278;32;44183;-80
2021/09/10 04:59:04;;;;;;;;;;;21.20;93.10;;;;;;4390751;32;43047;-80
2021/09/10 05:01:32;;;;;;;;;;;21.20;93.20;;;;;;4390606;32;43147;-80
2021/09/10 05:04:05;;;;;;;;;;;21.20;93.20;;;;;;4391174;32;44250;-80
2021/09/10 05:06:32;;;;;;;;;;;21.10;93.20;;;;;;4377719;32;43479;-80
2021/09/10 05:09:08;;;;;;;;;;;21.20;93.20;;;;;;4377307;32;44488;-80
2021/09/10 05:11:35;;;;;;;;;;;21.10;93.20;;;;;;4376517;32;42838;-80
2021/09/10 05:14:02;;;;;;;;;;;21.10;93.20;;;;;;4390868;32;44009;-79
2021/09/10 05:16:35;;;;;;;;;;;21.10;93.30;;;;;;4377052;32;44221;-79
2021/09/10 05:19:07;;;;;;;;;;;21.20;93.30;;;;;;4390779;32;44225;-79
2021/09/10 05:21:35;;;;;;;;;;;21.10;93.30;;;;;;4376801;32;43261;-80
2021/09/10 05:24:03;;;;;;;;;;;21.10;93.30;;;;;;4377078;32;44210;-79
2021/09/10 05:26:33;;;;;;;;;;;21.10;93.30;;;;;;4390202;32;43785;-78
2021/09/10 05:29:04;;;;;;;;;;;21.10;93.30;;;;;;4377127;32;43226;-80
2021/09/10 05:31:36;;;;;;;;;;;21.00;93.30;;;;;;4390209;32;42643;-79
2021/09/10 05:34:03;;;;;;;;;;;21.00;93.40;;;;;;4377405;32;44202;-80
2021/09/10 05:36:30;;;;;;;;;;;21.00;93.40;;;;;;4390442;32;46013;-79
2021/09/10 05:38:58;;;;;;;;;;;21.00;93.40;;;;;;4376900;32;44065;-79
2021/09/10 05:41:25;;;;;;;;;;;21.00;93.40;;;;;;4391030;32;20004;-79
2021/09/10 05:43:54;;;;;;;;;;;21.00;93.40;;;;;;4390069;32;44085;-79
2021/09/10 05:46:22;;;;;;;;;;;21.00;93.50;;;;;;4390160;32;43515;-79
2021/09/10 05:48:52;;;;;;;;;;;21.00;93.50;;;;;;4390367;32;43873;-79
2021/09/10 05:51:19;;;;;;;;;;;21.00;93.50;;;;;;4376338;32;44262;-79
2021/09/10 05:53:49;;;;;;;;;;;21.00;93.50;;;;;;4376284;32;43541;-80
2021/09/10 05:56:18;;;;;;;;;;;21.00;93.50;;;;;;4390026;32;42825;-78
2021/09/10 05:58:45;;;;;;;;;;;21.00;93.50;;;;;;4389812;32;46058;-79
2021/09/10 06:01:15;;;;;;;;;;;21.00;93.50;;;;;;4376064;32;42914;-79
2021/09/10 06:03:48;;;;;;;;;;;21.00;93.50;;;;;;4376637;32;43887;-79
2021/09/10 06:06:20;;;;;;;;;;;21.00;93.50;;;;;;4376982;32;43497;-79
2021/09/10 06:08:47;;;;;;;;;;;21.00;93.60;;;;;;4389719;32;42375;-79
2021/09/10 06:11:14;;;;;;;;;;;20.90;93.60;;;;;;4376291;32;43962;-79
2021/09/10 06:13:44;;;;;;;;;;;20.90;93.60;;;;;;4390275;32;44175;-79
2021/09/10 06:16:11;;;;;;;;;;;20.90;93.60;;;;;;4376381;32;43290;-79
2021/09/10 06:18:38;;;;;;;;;;;20.90;93.60;;;;;;4389740;32;43978;-79
2021/09/10 06:21:05;;;;;;;;;;;20.90;93.60;;;;;;4390002;32;45087;-79
2021/09/10 06:23:54;;;;;;;;;;;20.90;93.60;;;;;;4389377;32;42696;-79
2021/09/10 06:26:24;;;;;;;;;;;20.90;93.70;;;;;;4377963;32;20072;-79
2021/09/10 06:28:56;;;;;;;;;;;20.90;93.70;;;;;;4389920;32;45740;-79
2021/09/10 06:31:23;;;;;;;;;;;20.90;93.70;;;;;;4376280;32;43158;-79
2021/09/10 06:33:56;;;;;;;;;;;20.90;93.70;;;;;;4376684;32;43611;-79
2021/09/10 06:36:23;;;;;;;;;;;20.90;93.70;;;;;;4376224;32;42301;-79
2021/09/10 06:38:53;;;;;;;;;;;20.90;93.70;;;;;;4390046;32;44152;-79
2021/09/10 06:41:21;;;;;;;;;;;20.90;93.70;;;;;;4376039;32;43018;-78
2021/09/10 06:43:54;;;;;;;;;;;20.90;93.70;;;;;;4389410;32;44170;-80
2021/09/10 06:46:24;;;;;;;;;;;20.90;93.70;;;;;;4376268;32;43003;-79
2021/09/10 06:48:52;;;;;;;;;;;20.90;93.70;;;;;;4376172;32;43892;-79
2021/09/10 06:51:19;;;;;;;;;;;20.90;93.70;;;;;;4389507;32;44239;-79
2021/09/10 06:53:48;;;;;;;;;;;20.90;93.70;;;;;;4389612;32;43019;-79
2021/09/10 06:56:18;;;;;;;;;;;20.90;93.70;;;;;;4389788;32;43536;-79
2021/09/10 06:58:45;;;;;;;;;;;20.90;93.70;;;;;;4375666;32;43289;-79
2021/09/10 07:01:12;;;;;;;;;;;20.90;93.70;;;;;;4389437;32;43183;-79
2021/09/10 07:03:45;;;;;;;;;;;20.90;93.70;;;;;;4389618;32;43380;-79
2021/09/10 07:06:15;;;;;;;;;;;20.90;93.80;;;;;;4376464;32;44264;-79
2021/09/10 07:08:42;;;;;;;;;;;20.90;93.80;;;;;;4389721;32;43906;-79
2021/09/10 07:11:12;;;;;;;;;;;20.90;93.80;;;;;;4376325;32;43185;-80
2021/09/10 07:13:39;;;;;;;;;;;20.90;93.80;;;;;;4390293;32;20413;-80
2021/09/10 07:16:07;;;;;;;;;;;20.90;93.80;;;;;;4389638;32;44214;-80
2021/09/10 07:18:39;;;;;;;;;;;20.90;93.90;;;;;;4389412;32;43341;-80
2021/09/10 07:21:07;;;;;;;;;;;20.90;93.90;;;;;;4376168;32;44300;-80
2021/09/10 07:23:34;;;;;;;;;;;20.90;94.00;;;;;;4389051;32;43785;-80
2021/09/10 07:26:03;;;;;;;;;;;20.90;94.00;;;;;;4389039;32;43772;-80
2021/09/10 07:28:34;;;;;;;;;;;20.90;94.00;;;;;;4375817;32;43317;-81
2021/09/10 07:31:05;;;;;;;;;;;20.90;94.00;;;;;;4375656;32;43036;-80
2021/09/10 07:33:36;;;;;;;;;;;20.80;94.10;;;;;;4376139;32;42590;-80
2021/09/10 07:36:06;;;;;;;;;;;20.90;94.10;;;;;;4391875;32;43026;-80
2021/09/10 07:38:36;;;;;;;;;;;20.90;94.10;;;;;;4392023;32;45041;-80
2021/09/10 07:41:06;;;;;;;;;;;20.90;94.10;;;;;;4392092;32;45545;-80
2021/09/10 07:43:33;;;;;;;;;;;20.90;94.10;;;;;;4391976;32;43821;-80
2021/09/10 07:46:01;;;;;;;;;;;20.90;94.20;;;;;;4378787;32;43514;-80
2021/09/10 07:48:29;;;;;;;;;;;20.90;94.20;;;;;;4392120;32;43494;-80
2021/09/10 07:51:02;;;;;;;;;;;20.90;94.20;;;;;;4378009;32;42873;-80
2021/09/10 07:53:29;;;;;;;;;;;20.90;94.20;;;;;;4378726;32;43889;-80
2021/09/10 07:55:56;;;;;;;;;;;20.90;94.20;;;;;;4391638;32;42735;-80
2021/09/10 07:58:27;;;;;;;;;;;20.90;94.20;;;;;;4378276;32;44317;-81
2021/09/10 08:00:54;;;;;;;;;;;20.90;94.20;;;;;;4378421;32;44546;-80
2021/09/10 08:03:27;;;;;;;;;;;20.90;94.20;;;;;;4391703;32;43045;-80
2021/09/10 08:05:55;;;;;;;;;;;20.90;94.20;;;;;;4391860;32;44595;-81
2021/09/10 08:08:23;;;;;;;;;;;20.90;94.30;;;;;;4377828;32;43123;-80
2021/09/10 08:10:52;;;;;;;;;;;20.90;94.30;;;;;;4377885;32;45531;-80
2021/09/10 08:13:20;;;;;;;;;;;20.90;94.30;;;;;;4378494;32;31983;-80
2021/09/10 08:15:47;;;;;;;;;;;20.90;94.40;;;;;;4378105;32;42285;-81
2021/09/10 08:18:14;;;;;;;;;;;20.90;94.40;;;;;;4377578;32;42766;-80
2021/09/10 08:20:41;;;;;;;;;;;21.00;94.40;;;;;;4377793;32;43268;-80
2021/09/10 08:23:11;;;;;;;;;;;21.00;94.40;;;;;;4378086;32;44186;-80
2021/09/10 08:25:41;;;;;;;;;;;21.00;94.40;;;;;;4377712;32;44156;-80
2021/09/10 08:28:08;;;;;;;;;;;21.00;94.40;;;;;;4391583;32;43317;-80
2021/09/10 08:30:38;;;;;;;;;;;21.00;94.50;;;;;;4391039;32;42874;-80
2021/09/10 08:33:18;;;;;;;;;;;21.00;94.50;;;;;;4391431;32;44352;-80
2021/09/10 08:35:47;;;;;;;;;;;21.00;94.50;;;;;;4377877;32;43505;-80
2021/09/10 08:38:15;;;;;;;;;;;21.00;94.50;;;;;;4391103;32;42868;-80
2021/09/10 08:40:46;;;;;;;;;;;21.00;94.50;;;;;;4391499;32;44104;-80
2021/09/10 08:43:14;;;;;;;;;;;21.00;94.50;;;;;;4378060;32;29332;-80
2021/09/10 08:45:43;;;;;;;;;;;21.00;94.50;;;;;;4377310;32;44317;-80
2021/09/10 08:48:11;;;;;;;;;;;21.00;94.50;;;;;;4391193;32;25379;-81
2021/09/10 08:50:38;;;;;;;;;;;21.00;94.50;;;;;;4377560;32;43918;-80
2021/09/10 08:53:08;;;;;;;;;;;21.00;94.60;;;;;;4377194;32;43543;-80
2021/09/10 08:55:38;;;;;;;;;;;21.00;94.60;;;;;;4390746;32;42757;-80
2021/09/10 08:58:05;;;;;;;;;;;21.00;94.60;;;;;;4390992;32;43239;-80
2021/09/10 09:00:34;;;;;;;;;;;21.00;94.60;;;;;;4377464;32;44746;-80
2021/09/10 09:03:09;;;;;;;;;;;21.00;94.60;;;;;;4374319;32;44849;-81
2021/09/10 09:05:37;;;;;;;;;;;21.00;94.70;;;;;;4374797;32;44224;-80
2021/09/10 09:08:13;;;;;;;;;;;21.00;94.70;;;;;;4374895;32;43927;-80
2021/09/10 09:10:57;;;;;;;;;;;21.00;94.70;;;;;;4375838;32;44262;-80
2021/09/10 09:13:27;;;;;;;;;;;21.00;94.80;;;;;;4374422;32;44180;-80
2021/09/10 09:16:24;;;;;;;;;;;20.90;94.70;;;;;;4375815;32;44456;-80
2021/09/10 09:18:57;;;;;;;;;;;20.90;94.80;;;;;;4354714;32;44449;-80
2021/09/10 09:21:29;;;;;;;;;;;20.90;94.90;;;;;;4375244;32;45542;-80
2021/09/10 09:23:58;;;;;;;;;;;20.90;94.90;;;;;;4374950;32;43358;-81
2021/09/10 09:26:27;;;;;;;;;;;20.90;94.90;;;;;;4374448;32;43044;-80
2021/09/10 09:29:27;;;;;;;;;;;20.90;94.90;;;;;;4374397;32;43781;-80
2021/09/10 09:31:58;;;;;;;;;;;20.90;94.90;;;;;;4341506;32;44189;-80
2021/09/10 09:34:46;;;;;;;;;;;20.90;95.00;;;;;;4374557;32;44194;-80
2021/09/10 09:37:17;;;;;;;;;;;20.90;95.00;;;;;;4375415;32;43506;-80
2021/09/10 09:39:52;;;;;;;;;;;20.90;95.00;;;;;;4374291;32;44262;-80
2021/09/10 09:42:28;;;;;;;;;;;20.90;95.10;;;;;;4375250;32;43576;-80
2021/09/10 09:45:06;;;;;;;;;;;20.90;95.20;;;;;;4375337;32;43890;-80
2021/09/10 09:47:35;;;;;;;;;;;20.80;95.20;;;;;;4375492;32;43274;-80
2021/09/10 09:50:03;;;;;;;;;;;20.80;95.20;;;;;;4373838;32;43041;-80
2021/09/10 09:52:30;;;;;;;;;;;20.90;95.30;;;;;;4374846;32;45599;-80
2021/09/10 09:54:58;;;;;;;;;;;20.90;95.20;;;;;;4375016;32;43529;-80
2021/09/10 09:57:26;;;;;;;;;;;20.90;95.30;;;;;;4374632;32;44199;-81
2021/09/10 09:59:54;;;;;;;;;;;20.90;95.20;;;;;;4374980;32;43239;-80
2021/09/10 10:02:21;;;;;;;;;;;20.90;95.30;;;;;;4378898;32;43909;-80
2021/09/10 10:04:52;;;;;;;;;;;20.90;95.30;;;;;;4376269;32;42613;-80
2021/09/10 10:07:19;;;;;;;;;;;21.00;95.20;;;;;;4376193;32;44401;-81
2021/09/10 10:09:48;;;;;;;;;;;21.00;95.30;;;;;;4376910;32;43278;-80
2021/09/10 10:12:21;;;;;;;;;;;21.00;95.30;;;;;;4389937;32;42643;-82
2021/09/10 10:14:54;;;;;;;;;;;21.00;95.20;;;;;;4376493;32;43431;-81
2021/09/10 10:17:30;;;;;;;;;;;21.10;95.30;;;;;;4376774;32;44039;-83
2021/09/10 10:20:01;;;;;;;;;;;21.00;95.20;;;;;;4389898;32;43521;-83
2021/09/10 10:22:35;;;;;;;;;;;21.10;95.30;;;;;;4389444;32;44907;-81
2021/09/10 10:25:04;;;;;;;;;;;21.10;95.30;;;;;;4389925;32;44231;-81
2021/09/10 10:27:38;;;;;;;;;;;21.10;95.30;;;;;;4389842;32;44924;-81
2021/09/10 10:30:07;;;;;;;;;;;21.00;95.30;;;;;;4375898;32;44100;-82
2021/09/10 10:32:38;;;;;;;;;;;21.00;95.30;;;;;;4376579;32;44369;-82
2021/09/10 10:35:11;;;;;;;;;;;21.10;95.30;;;;;;4389450;32;45117;-81
2021/09/10 10:37:40;;;;;;;;;;;21.10;95.30;;;;;;4376269;32;44426;-81
2021/09/10 10:40:27;;;;;;;;;;;21.10;95.40;;;;;;4375796;32;46131;-80
2021/09/10 10:43:08;;;;;;;;;;;21.10;95.40;;;;;;4371053;32;44502;-80
2021/09/10 10:45:41;;;;;;;;;;;21.10;95.40;;;;;;4375796;32;44816;-81
2021/09/10 10:48:28;;;;;;;;;;;21.10;95.40;;;;;;4377567;32;20443;-81
2021/09/10 10:50:59;;;;;;;;;;;21.10;95.40;;;;;;4375863;32;43092;-81
2021/09/10 10:53:26;;;;;;;;;;;21.10;95.40;;;;;;4376033;32;44267;-81
2021/09/10 10:55:53;;;;;;;;;;;21.10;95.40;;;;;;4389548;32;42656;-83
2021/09/10 10:58:24;;;;;;;;;;;21.10;95.50;;;;;;4375906;32;45697;-83
2021/09/10 11:00:52;;;;;;;;;;;21.10;95.50;;;;;;4376034;32;43411;-82
2021/09/10 11:03:21;;;;;;;;;;;21.00;95.50;;;;;;4375573;32;45285;-82
2021/09/10 11:05:50;;;;;;;;;;;21.10;95.50;;;;;;4375861;32;44596;-83
2021/09/10 11:08:18;;;;;;;;;;;21.10;95.60;;;;;;4375625;32;45550;-82
2021/09/10 11:10:57;;;;;;;;;;;21.10;95.60;;;;;;4378029;32;44192;-82
2021/09/10 11:13:24;;;;;;;;;;;21.10;95.60;;;;;;4379070;32;44096;-82
2021/09/10 11:15:51;;;;;;;;;;;21.10;95.60;;;;;;4378901;32;43650;-82
2021/09/10 11:18:18;;;;;;;;;;;21.10;95.50;;;;;;4393222;32;20406;-82
2021/09/10 11:20:48;;;;;;;;;;;21.00;95.50;;;;;;4378407;32;46008;-82
2021/09/10 11:23:17;;;;;;;;;;;21.00;95.60;;;;;;4378402;32;43849;-81
2021/09/10 11:25:46;;;;;;;;;;;21.00;95.60;;;;;;4391810;32;45282;-83
2021/09/10 11:28:13;;;;;;;;;;;21.00;95.60;;;;;;4392438;32;43803;-81
2021/09/10 11:30:44;;;;;;;;;;;21.10;95.70;;;;;;4378710;32;44358;-82
2021/09/10 11:33:15;;;;;;;;;;;21.10;95.70;;;;;;4392024;32;43754;-82
2021/09/10 11:35:42;;;;;;;;;;;21.10;95.70;;;;;;4392021;32;42887;-82
2021/09/10 11:38:11;;;;;;;;;;;21.10;95.80;;;;;;4392112;32;43542;-82
2021/09/10 11:40:46;;;;;;;;;;;21.20;95.90;;;;;;4378153;32;42810;-81
2021/09/10 11:43:20;;;;;;;;;;;21.20;95.90;;;;;;4378999;32;44231;-81
2021/09/10 11:46:10;;;;;;;;;;;21.20;95.90;;;;;;4378326;32;43543;-81
2021/09/10 11:48:39;;;;;;;;;;;21.20;95.90;;;;;;4379516;32;20000;-81
2021/09/10 11:51:07;;;;;;;;;;;21.30;95.90;;;;;;4392026;32;44479;-81
2021/09/10 11:53:57;;;;;;;;;;;21.30;95.90;;;;;;4378744;32;45209;-83
2021/09/10 11:56:33;;;;;;;;;;;21.40;95.90;;;;;;4392145;32;44781;-82
2021/09/10 11:59:03;;;;;;;;;;;21.30;95.80;;;;;;4391997;32;45047;-81
2021/09/10 12:01:39;;;;;;;;;;;21.30;95.80;;;;;;4378895;32;44481;-81
2021/09/10 12:04:11;;;;;;;;;;;21.30;95.80;;;;;;4378032;32;43658;-82
2021/09/10 12:06:50;;;;;;;;;;;21.30;95.80;;;;;;4377841;32;45882;-81
2021/09/10 12:09:23;;;;;;;;;;;21.30;95.80;;;;;;4378269;32;44072;-81
2021/09/10 12:11:56;;;;;;;;;;;21.30;95.80;;;;;;4378303;32;45243;-81
2021/09/10 12:14:42;;;;;;;;;;;21.30;95.80;;;;;;4377681;32;42546;-81
2021/09/10 12:17:38;;;;;;;;;;;21.30;95.90;;;;;;4378214;32;46135;-82
2021/09/10 12:20:10;;;;;;;;;;;21.30;95.80;;;;;;4378289;32;20057;-82
2021/09/10 12:22:42;;;;;;;;;;;21.30;95.80;;;;;;4377925;32;44505;-82
2021/09/10 12:25:22;;;;;;;;;;;21.30;95.80;;;;;;4391414;32;45575;-83
2021/09/10 12:27:50;;;;;;;;;;;21.30;95.80;;;;;;4391573;32;44584;-84
2021/09/10 12:30:18;;;;;;;;;;;21.30;95.80;;;;;;4391024;32;42779;-83
2021/09/10 12:32:45;;;;;;;;;;;21.30;95.80;;;;;;4377825;32;45502;-83
2021/09/10 12:35:13;;;;;;;;;;;21.30;95.80;;;;;;4377828;32;45808;-83
2021/09/10 12:37:43;;;;;;;;;;;21.20;95.70;;;;;;4377445;32;44354;-83
2021/09/10 12:40:10;;;;;;;;;;;21.20;95.70;;;;;;4391270;32;44503;-82
2021/09/10 12:42:37;;;;;;;;;;;21.20;95.70;;;;;;4377608;32;43214;-83
2021/09/10 12:45:07;;;;;;;;;;;21.10;95.60;;;;;;4377427;32;44574;-83
2021/09/10 12:47:37;;;;;;;;;;;21.10;95.60;;;;;;4391045;32;43281;-83
2021/09/10 12:50:09;;;;;;;;;;;21.10;95.60;;;;;;4377054;32;45708;-83
2021/09/10 12:52:37;;;;;;;;;;;21.10;95.60;;;;;;4377828;32;45675;-83
2021/09/10 12:55:05;;;;;;;;;;;21.10;95.60;;;;;;4377599;32;43190;-82
2021/09/10 12:57:33;;;;;;;;;;;21.00;95.60;;;;;;4377098;32;45236;-83
2021/09/10 13:00:00;;;;;;;;;;;21.00;95.60;;;;;;4390961;32;45134;-83
2021/09/10 13:02:28;;;;;;;;;;;21.00;95.60;;;;;;4376918;32;42857;-83
2021/09/10 13:04:58;;;;;;;;;;;21.00;95.60;;;;;;4377362;32;42757;-82
2021/09/10 13:07:26;;;;;;;;;;;20.90;95.60;;;;;;4377507;32;43630;-82
2021/09/10 13:09:56;;;;;;;;;;;20.90;95.70;;;;;;4390384;32;43947;-83
2021/09/10 13:12:26;;;;;;;;;;;20.90;95.70;;;;;;4376749;32;45267;-82
2021/09/10 13:14:56;;;;;;;;;;;20.90;95.70;;;;;;4376878;32;44171;-83
2021/09/10 13:17:26;;;;;;;;;;;20.90;95.80;;;;;;4377541;32;43183;-82
2021/09/10 13:19:54;;;;;;;;;;;20.90;95.80;;;;;;4376807;32;44390;-82
2021/09/10 13:22:21;;;;;;;;;;;20.90;95.80;;;;;;4376837;32;43474;-82
2021/09/10 13:24:48;;;;;;;;;;;20.90;95.80;;;;;;4390267;32;43246;-82
2021/09/10 13:27:17;;;;;;;;;;;20.90;95.90;;;;;;4390155;32;44110;-82
2021/09/10 13:29:47;;;;;;;;;;;20.90;95.80;;;;;;4390548;32;45732;-82
2021/09/10 13:32:17;;;;;;;;;;;20.90;95.80;;;;;;4376744;32;43988;-83
2021/09/10 13:34:44;;;;;;;;;;;20.90;95.90;;;;;;4376569;32;43424;-83
2021/09/10 13:37:14;;;;;;;;;;;21.00;95.90;;;;;;4377097;32;45793;-82
2021/09/10 13:39:50;;;;;;;;;;;21.00;95.90;;;;;;4377299;32;43389;-83
2021/09/10 13:42:24;;;;;;;;;;;21.00;95.90;;;;;;4377176;32;43487;-83
2021/09/10 13:44:54;;;;;;;;;;;21.00;95.90;;;;;;4390631;32;44787;-83
2021/09/10 13:47:26;;;;;;;;;;;21.10;95.90;;;;;;4376973;32;44482;-83
2021/09/10 13:50:01;;;;;;;;;;;21.10;95.90;;;;;;4376831;32;44556;-83
2021/09/10 13:52:31;;;;;;;;;;;21.10;95.90;;;;;;4377298;32;20039;-84
2021/09/10 13:55:03;;;;;;;;;;;21.10;95.80;;;;;;4376286;32;44479;-84
2021/09/10 13:57:30;;;;;;;;;;;21.20;95.90;;;;;;4376917;32;44328;-84
2021/09/10 13:59:57;;;;;;;;;;;21.20;95.90;;;;;;4376569;32;44084;-83
2021/09/10 14:02:24;;;;;;;;;;;21.20;95.90;;;;;;4376012;32;46236;-83
2021/09/10 14:04:54;;;;;;;;;;;21.20;95.90;;;;;;4376887;32;45122;-83
2021/09/10 14:07:24;;;;;;;;;;;21.20;95.90;;;;;;4376887;32;45098;-83
2021/09/10 14:09:54;;;;;;;;;;;21.20;95.90;;;;;;4376316;32;43359;-84
2021/09/10 14:12:21;;;;;;;;;;;21.30;95.90;;;;;;4389785;32;42668;-84
2021/09/10 14:14:50;;;;;;;;;;;21.20;95.90;;;;;;4376602;32;44637;-86
2021/09/10 14:17:17;;;;;;;;;;;21.30;95.90;;;;;;4376570;32;44101;-84
2021/09/10 14:19:44;;;;;;;;;;;21.30;95.90;;;;;;4376455;32;44267;-85
2021/09/10 14:22:11;;;;;;;;;;;21.30;95.90;;;;;;4376345;32;45096;-86
2021/09/10 14:24:39;;;;;;;;;;;21.30;96.00;;;;;;4389452;32;44145;-84
2021/09/10 14:27:06;;;;;;;;;;;21.30;96.10;;;;;;4376611;32;44842;-84
2021/09/10 14:29:33;;;;;;;;;;;21.40;96.10;;;;;;4376537;32;45714;-85
2021/09/10 14:32:00;;;;;;;;;;;21.40;96.10;;;;;;4375892;32;45348;-84
2021/09/10 14:34:32;;;;;;;;;;;21.40;96.00;;;;;;4376403;32;44111;-86